Time;durP1;ratioP1;P1;durP2;ratioP2;P2;SDS_P1;SDS_P2;PMS_P1;PMS_P2;Temp;Humidity;BMP_temperature;BMP_pressure;BME280_temperature;BME280_humidity;BME280_pressure;Samples;Min_cycle;Max_cycle;Signal;HPM_P1;HPM_P2
2023/10/07 00:02:16;;;;;;;21.03;5.30;;;17.40;99.90;;;;;;5075252;28;20052;-68
2023/10/07 00:04:44;;;;;;;20.27;5.30;;;17.40;99.90;;;;;;5075187;28;20044;-68
2023/10/07 00:07:10;;;;;;;15.37;4.50;;;17.40;99.90;;;;;;5075132;28;20136;-68
2023/10/07 00:09:43;;;;;;;19.13;4.87;;;17.50;99.90;;;;;;5075110;28;20052;-68
2023/10/07 00:12:14;;;;;;;17.73;5.30;;;17.50;99.90;;;;;;5074879;28;20048;-68
2023/10/07 00:14:41;;;;;;;17.17;5.30;;;17.50;99.90;;;;;;5074874;28;20059;-68
2023/10/07 00:17:16;;;;;;;20.90;4.67;;;17.50;99.90;;;;;;5075002;28;20169;-68
2023/10/07 00:19:46;;;;;;;20.07;5.50;;;17.50;99.90;;;;;;5074877;28;20045;-68
2023/10/07 00:22:19;;;;;;;20.83;5.67;;;17.50;99.90;;;;;;5074763;28;20049;-68
2023/10/07 00:24:48;;;;;;;18.57;5.33;;;17.50;99.90;;;;;;5074882;28;20472;-68
2023/10/07 00:27:38;;;;;;;17.47;5.33;;;17.50;99.90;;;;;;5074690;28;20057;-68
2023/10/07 00:30:12;;;;;;;20.60;5.37;;;17.50;99.90;;;;;;5074624;28;20063;-68
2023/10/07 00:32:38;;;;;;;22.90;4.97;;;17.50;99.90;;;;;;5073954;28;20084;-68
2023/10/07 00:35:06;;;;;;;18.47;5.17;;;17.50;99.90;;;;;;5074579;28;20090;-68
2023/10/07 00:37:35;;;;;;;14.33;4.67;;;17.50;99.90;;;;;;5074530;28;20052;-68
2023/10/07 00:40:14;;;;;;;22.77;5.33;;;17.50;99.90;;;;;;5074474;28;20040;-68
2023/10/07 00:42:46;;;;;;;18.33;5.03;;;17.50;99.90;;;;;;5074697;28;20044;-68
2023/10/07 00:45:16;;;;;;;21.00;5.27;;;17.60;99.90;;;;;;5074707;28;20048;-68
2023/10/07 00:47:49;;;;;;;16.87;4.57;;;17.60;99.90;;;;;;5074402;28;20052;-68
2023/10/07 00:50:16;;;;;;;17.67;5.10;;;17.60;99.90;;;;;;5074978;28;20373;-68
2023/10/07 00:55:27;;;;;;;14.67;3.90;;;17.60;99.90;;;;;;5074195;28;20059;-68
2023/10/07 00:58:04;;;;;;;23.67;5.35;;;17.60;99.90;;;;;;5074289;28;20468;-68
2023/10/07 01:05:53;;;;;;;16.27;4.50;;;17.60;99.90;;;;;;5074819;28;20084;-68
2023/10/07 01:08:20;;;;;;;17.03;4.13;;;17.60;99.90;;;;;;5073713;28;20566;-68
2023/10/07 01:10:54;;;;;;;15.53;4.60;;;17.70;99.90;;;;;;5074282;28;20377;-68
2023/10/07 01:13:29;;;;;;;18.33;5.03;;;17.70;99.90;;;;;;5074733;28;20381;-68
2023/10/07 01:15:56;;;;;;;16.73;5.32;;;17.70;99.90;;;;;;5073946;28;20076;-68
2023/10/07 01:18:21;;;;;;;14.20;4.33;;;17.70;99.90;;;;;;5073799;28;20048;-68
2023/10/07 01:23:17;;;;;;;14.10;4.37;;;17.70;99.90;;;;;;5074563;28;20056;-68
2023/10/07 01:25:50;;;;;;;14.80;5.00;;;17.70;99.90;;;;;;5074123;28;20113;-68
2023/10/07 01:28:16;;;;;;;14.50;4.83;;;17.70;99.90;;;;;;5073799;28;20138;-68
2023/10/07 01:33:35;;;;;;;16.45;4.10;;;17.70;99.90;;;;;;5073140;28;20087;-68
2023/10/07 01:36:10;;;;;;;16.73;4.67;;;17.70;99.90;;;;;;5073958;28;20401;-68
2023/10/07 01:38:41;;;;;;;17.77;4.30;;;17.60;99.90;;;;;;5074139;28;20439;-68
2023/10/07 01:41:18;;;;;;;15.27;5.10;;;17.70;99.90;;;;;;5072755;28;20087;-68
2023/10/07 01:43:56;;;;;;;13.90;4.27;;;17.70;99.90;;;;;;5074104;28;20055;-68
2023/10/07 01:46:27;;;;;;;19.47;5.33;;;17.70;99.90;;;;;;5073636;28;20087;-68
2023/10/07 01:48:55;;;;;;;16.63;4.47;;;17.70;99.90;;;;;;5073504;28;20037;-68
2023/10/07 01:51:23;;;;;;;18.27;4.40;;;17.70;99.90;;;;;;5073410;28;20041;-68
2023/10/07 01:53:49;;;;;;;13.47;3.60;;;17.70;99.90;;;;;;5073890;28;20056;-68
2023/10/07 01:56:15;;;;;;;17.50;4.77;;;17.70;99.90;;;;;;5073994;28;20044;-68
2023/10/07 01:58:41;;;;;;;16.77;4.60;;;17.70;99.90;;;;;;5073397;28;20048;-68
2023/10/07 02:01:07;;;;;;;15.27;4.43;;;17.70;99.90;;;;;;5073266;28;20473;-68
2023/10/07 02:03:33;;;;;;;19.37;4.50;;;17.70;99.90;;;;;;5073377;28;20052;-68
2023/10/07 02:05:59;;;;;;;18.33;4.30;;;17.70;99.90;;;;;;5073229;28;20109;-68
2023/10/07 02:08:25;;;;;;;18.73;4.80;;;17.70;99.90;;;;;;5073297;28;20049;-68
2023/10/07 02:10:58;;;;;;;22.23;5.07;;;17.70;99.90;;;;;;5073834;28;20044;-68
2023/10/07 02:13:27;;;;;;;18.10;4.47;;;17.70;99.90;;;;;;5073345;28;20048;-68
2023/10/07 02:15:57;;;;;;;16.60;4.43;;;17.60;99.90;;;;;;5073036;28;20047;-68
2023/10/07 02:18:26;;;;;;;17.97;4.43;;;17.60;99.90;;;;;;5073199;28;20068;-68
2023/10/07 02:21:05;;;;;;;16.17;4.50;;;17.60;99.90;;;;;;5073066;28;20480;-68
2023/10/07 02:23:46;;;;;;;17.70;4.10;;;17.60;99.90;;;;;;5073203;28;20056;-68
2023/10/07 02:28:48;;;;;;;19.73;4.53;;;17.60;99.90;;;;;;5073145;28;20048;-68
2023/10/07 02:31:17;;;;;;;18.20;5.20;;;17.60;99.90;;;;;;5072760;28;20504;-68
2023/10/07 02:33:51;;;;;;;15.83;4.37;;;17.60;99.90;;;;;;5073543;28;20084;-68
2023/10/07 02:36:28;;;;;;;20.80;5.20;;;17.60;99.90;;;;;;5073798;28;20382;-68
2023/10/07 02:38:57;;;;;;;18.13;5.03;;;17.60;99.90;;;;;;5073542;28;20127;-68
2023/10/07 02:41:25;;;;;;;15.67;4.20;;;17.60;99.90;;;;;;5073641;28;20037;-68
2023/10/07 02:43:51;;;;;;;16.80;4.50;;;17.50;99.90;;;;;;5074328;28;20048;-68
2023/10/07 02:46:33;;;;;;;17.13;4.50;;;17.50;99.90;;;;;;5075999;28;20040;-68
2023/10/07 02:49:06;;;;;;;19.67;4.73;;;17.50;99.90;;;;;;5077186;28;20127;-68
2023/10/07 02:51:39;;;;;;;16.47;4.60;;;17.50;99.90;;;;;;5077399;28;20036;-68
2023/10/07 02:54:11;;;;;;;16.53;4.37;;;17.50;99.90;;;;;;5075555;28;20052;-68
2023/10/07 02:56:44;;;;;;;21.03;4.97;;;17.50;99.90;;;;;;5077322;28;20126;-68
2023/10/07 02:59:27;;;;;;;18.87;4.30;;;17.50;99.90;;;;;;5077088;28;20049;-68
2023/10/07 03:02:12;;;;;;;19.57;4.63;;;17.60;99.90;;;;;;5076847;28;20319;-68
2023/10/07 03:04:42;;;;;;;14.60;3.78;;;17.50;99.90;;;;;;5076687;28;20051;-68
2023/10/07 03:07:15;;;;;;;18.13;4.20;;;17.60;99.90;;;;;;5076255;28;20046;-68
2023/10/07 03:09:52;;;;;;;15.37;4.07;;;17.60;99.90;;;;;;5076707;28;20468;-68
2023/10/07 03:12:27;;;;;;;18.63;4.37;;;17.60;99.90;;;;;;5076265;28;20098;-68
2023/10/07 03:15:05;;;;;;;17.07;4.33;;;17.60;99.90;;;;;;5076444;28;20127;-68
2023/10/07 03:17:37;;;;;;;19.07;4.60;;;17.60;99.90;;;;;;5076204;28;20123;-68
2023/10/07 03:20:47;;;;;;;17.97;4.40;;;17.60;99.90;;;;;;5076076;28;20044;-68
2023/10/07 03:23:11;;;;;;;19.37;4.33;;;17.60;99.90;;;;;;5072775;28;20405;-68
2023/10/07 03:28:18;;;;;;;21.03;4.20;;;17.60;99.90;;;;;;5075961;28;20048;-68
2023/10/07 03:30:56;;;;;;;19.10;5.07;;;17.60;99.90;;;;;;5076167;28;20444;-68
2023/10/07 03:33:32;;;;;;;18.83;4.27;;;17.60;99.90;;;;;;5075869;28;20051;-68
2023/10/07 03:38:28;;;;;;;17.83;3.97;;;17.60;99.90;;;;;;5075448;28;20519;-68
2023/10/07 03:40:54;;;;;;;15.53;4.73;;;17.60;99.90;;;;;;5075618;28;20487;-68
2023/10/07 03:43:27;;;;;;;20.03;4.87;;;17.60;99.90;;;;;;5075611;28;20098;-68
2023/10/07 03:45:54;;;;;;;16.77;4.17;;;17.60;99.90;;;;;;5076135;28;20393;-68
2023/10/07 03:48:31;;;;;;;18.50;5.13;;;17.60;99.90;;;;;;5075558;28;20151;-68
2023/10/07 03:51:07;;;;;;;17.60;5.10;;;17.60;99.90;;;;;;5074733;28;20127;-68
2023/10/07 03:54:00;;;;;;;16.13;4.33;;;17.60;99.90;;;;;;5075464;28;20474;-68
2023/10/07 03:56:20;;;;;;;17.07;4.00;;;17.60;99.90;;;;;;5074454;28;20094;-68
2023/10/07 03:58:47;;;;;;;16.23;4.70;;;17.60;99.90;;;;;;5075038;28;20064;-68
2023/10/07 04:01:17;;;;;;;16.73;4.60;;;17.60;99.90;;;;;;5075737;28;20052;-68
2023/10/07 04:03:47;;;;;;;16.90;4.27;;;17.60;99.90;;;;;;5075230;28;20044;-68
2023/10/07 04:06:17;;;;;;;17.27;4.77;;;17.60;99.90;;;;;;5075274;28;20045;-68
2023/10/07 04:08:52;;;;;;;13.37;5.10;;;17.60;99.90;;;;;;5075161;28;20105;-68
2023/10/07 04:11:28;;;;;;;19.90;4.20;;;17.60;99.90;;;;;;5074415;28;20532;-68
2023/10/07 04:13:57;;;;;;;15.60;4.27;;;17.60;99.90;;;;;;5075087;28;20048;-69
2023/10/07 04:16:24;;;;;;;15.83;4.07;;;17.60;99.90;;;;;;5074989;28;20083;-68
2023/10/07 04:18:50;;;;;;;22.93;4.83;;;17.60;99.90;;;;;;5074962;28;20047;-68
2023/10/07 04:21:16;;;;;;;14.37;5.13;;;17.60;99.90;;;;;;5074809;28;20076;-68
2023/10/07 04:23:45;;;;;;;16.67;4.30;;;17.50;99.90;;;;;;5074902;28;20045;-68
2023/10/07 04:26:19;;;;;;;19.10;4.73;;;17.60;99.90;;;;;;5073786;28;20405;-68
2023/10/07 04:28:49;;;;;;;15.60;3.57;;;17.60;99.90;;;;;;5074815;28;20542;-68
2023/10/07 04:31:29;;;;;;;23.30;4.10;;;17.60;99.90;;;;;;5074609;28;20045;-68
2023/10/07 04:33:55;;;;;;;14.90;4.90;;;17.50;99.90;;;;;;5074933;28;20048;-68
2023/10/07 04:36:33;;;;;;;14.70;4.30;;;17.50;99.90;;;;;;5074394;28;20440;-68
2023/10/07 04:39:08;;;;;;;13.97;4.70;;;17.50;99.90;;;;;;5073350;28;20064;-69
2023/10/07 04:41:36;;;;;;;17.65;4.13;;;17.50;99.90;;;;;;5075301;28;20139;-68
2023/10/07 04:46:56;;;;;;;15.63;4.30;;;17.50;99.90;;;;;;5075018;28;20048;-68
2023/10/07 04:49:26;;;;;;;13.03;4.03;;;17.50;99.90;;;;;;5074343;28;20048;-68
2023/10/07 04:51:58;;;;;;;16.17;3.93;;;17.50;99.90;;;;;;5074355;28;20037;-68
2023/10/07 04:54:24;;;;;;;17.17;4.40;;;17.50;99.90;;;;;;5074386;28;20048;-68
2023/10/07 04:57:00;;;;;;;19.63;4.10;;;17.50;99.90;;;;;;5074204;28;20105;-68
2023/10/07 04:59:27;;;;;;;15.50;3.97;;;17.50;99.90;;;;;;5074124;28;20055;-68
2023/10/07 05:02:01;;;;;;;17.27;5.23;;;17.50;99.90;;;;;;5074096;28;20040;-68
2023/10/07 05:04:28;;;;;;;16.57;4.10;;;17.50;99.90;;;;;;5074660;28;20051;-68
2023/10/07 05:06:54;;;;;;;16.30;4.30;;;17.50;99.90;;;;;;5072945;28;20497;-68
2023/10/07 05:09:21;;;;;;;17.40;4.60;;;17.50;99.90;;;;;;5073899;28;20044;-68
2023/10/07 05:11:48;;;;;;;17.63;4.13;;;17.50;99.90;;;;;;5072820;28;20041;-68
2023/10/07 05:14:18;;;;;;;18.30;4.60;;;17.50;99.90;;;;;;5073968;28;20048;-68
2023/10/07 05:16:46;;;;;;;16.47;4.43;;;17.50;99.90;;;;;;5074121;28;20056;-68
2023/10/07 05:19:21;;;;;;;17.23;4.60;;;17.40;99.90;;;;;;5073825;28;20541;-68
2023/10/07 05:22:06;;;;;;;16.88;3.95;;;17.40;99.90;;;;;;5073615;28;20548;-68
2023/10/07 05:24:35;;;;;;;18.40;4.13;;;17.40;99.90;;;;;;5073682;28;20052;-68
2023/10/07 05:27:01;;;;;;;17.13;4.30;;;17.40;99.90;;;;;;5073002;28;20147;-68
2023/10/07 05:29:28;;;;;;;13.13;4.27;;;17.40;99.90;;;;;;5072364;28;20052;-68
2023/10/07 05:31:55;;;;;;;14.43;4.43;;;17.40;99.90;;;;;;5073768;28;20486;-68
2023/10/07 05:34:21;;;;;;;16.13;4.07;;;17.40;99.90;;;;;;5073547;28;20044;-68
2023/10/07 05:36:47;;;;;;;16.03;4.23;;;17.40;99.90;;;;;;5072587;28;20516;-68
2023/10/07 05:39:15;;;;;;;14.93;4.20;;;17.30;99.90;;;;;;5072316;28;20055;-68
2023/10/07 05:41:41;;;;;;;15.90;4.37;;;17.30;99.90;;;;;;5073408;28;20084;-68
2023/10/07 05:44:09;;;;;;;15.57;4.43;;;17.30;99.90;;;;;;5073221;28;20102;-68
2023/10/07 05:46:35;;;;;;;17.57;4.00;;;17.30;99.90;;;;;;5073462;28;20055;-68
2023/10/07 05:49:02;;;;;;;18.27;4.13;;;17.30;99.90;;;;;;5073405;28;20502;-68
2023/10/07 05:51:28;;;;;;;19.20;4.00;;;17.30;99.90;;;;;;5072232;28;20136;-68
2023/10/07 05:53:53;;;;;;;16.97;3.97;;;17.30;99.90;;;;;;5055576;28;20132;-68
2023/10/07 05:56:19;;;;;;;18.63;4.03;;;17.30;99.90;;;;;;5073320;28;20095;-68
2023/10/07 05:58:45;;;;;;;18.23;3.80;;;17.30;99.90;;;;;;5073030;28;20044;-68
2023/10/07 06:01:11;;;;;;;16.40;5.27;;;17.20;99.90;;;;;;5073383;28;20074;-68
2023/10/07 06:03:37;;;;;;;22.23;4.70;;;17.20;99.90;;;;;;5073592;28;20076;-68
2023/10/07 06:06:04;;;;;;;13.47;3.53;;;17.30;99.90;;;;;;5073873;28;20051;-68
2023/10/07 06:08:33;;;;;;;14.37;4.30;;;17.30;99.90;;;;;;5072991;28;20489;-68
2023/10/07 06:11:00;;;;;;;18.27;4.80;;;17.30;99.90;;;;;;5073248;28;20036;-68
2023/10/07 06:13:27;;;;;;;15.60;4.47;;;17.30;99.90;;;;;;5073164;28;20476;-68
2023/10/07 06:15:55;;;;;;;17.43;3.90;;;17.30;99.90;;;;;;5073216;28;20055;-68
2023/10/07 06:18:22;;;;;;;17.20;3.87;;;17.30;99.90;;;;;;5074101;28;20081;-68
2023/10/07 06:20:48;;;;;;;17.73;4.00;;;17.30;99.90;;;;;;5077101;28;20048;-68
2023/10/07 06:23:14;;;;;;;15.33;4.67;;;17.30;99.90;;;;;;5077220;28;20048;-68
2023/10/07 06:25:51;;;;;;;18.03;3.40;;;17.30;99.90;;;;;;5075977;28;20063;-68
2023/10/07 06:31:13;;;;;;;14.50;4.23;;;17.30;99.90;;;;;;5077641;28;20392;-69
2023/10/07 06:33:44;;;;;;;9.73;3.83;;;17.40;99.90;;;;;;5059387;28;20503;-68
2023/10/07 06:36:12;;;;;;;19.33;4.50;;;17.30;99.90;;;;;;5075695;28;20404;-68
2023/10/07 06:38:52;;;;;;;13.73;4.53;;;17.30;99.90;;;;;;5075963;28;20094;-68
2023/10/07 06:41:19;;;;;;;13.50;4.43;;;17.30;99.90;;;;;;5076772;28;20131;-68
2023/10/07 06:43:49;;;;;;;15.23;4.40;;;17.30;99.90;;;;;;5076781;28;20048;-68
2023/10/07 06:46:21;;;;;;;14.93;3.97;;;17.30;99.90;;;;;;5076949;28;20611;-68
2023/10/07 06:48:50;;;;;;;15.67;5.77;;;17.40;99.90;;;;;;5076748;28;20048;-68
2023/10/07 06:51:16;;;;;;;16.40;3.90;;;17.40;99.90;;;;;;5076591;28;20123;-68
2023/10/07 06:53:43;;;;;;;14.23;3.70;;;17.40;99.90;;;;;;5077310;28;20186;-68
2023/10/07 06:56:21;;;;;;;16.93;4.00;;;17.40;99.90;;;;;;5077256;28;20052;-68
2023/10/07 06:58:54;;;;;;;16.40;3.93;;;17.40;99.90;;;;;;5076478;28;20574;-68
2023/10/07 07:01:35;;;;;;;17.43;4.67;;;17.40;99.90;;;;;;5076908;28;20041;-68
2023/10/07 07:04:10;;;;;;;17.20;4.33;;;17.40;99.90;;;;;;5059058;28;20137;-68
2023/10/07 07:06:44;;;;;;;10.80;4.03;;;17.50;99.90;;;;;;5076937;28;20049;-67
2023/10/07 07:11:57;;;;;;;14.02;4.72;;;17.50;99.90;;;;;;5076319;28;20048;-67
2023/10/07 07:14:28;;;;;;;13.57;4.10;;;17.50;99.90;;;;;;5076141;28;20048;-67
2023/10/07 07:17:17;;;;;;;13.83;3.97;;;17.50;99.90;;;;;;5076185;28;20054;-66
2023/10/07 07:19:44;;;;;;;22.00;5.07;;;17.50;99.90;;;;;;5076163;28;20501;-66
2023/10/07 07:22:11;;;;;;;15.93;4.40;;;17.50;99.90;;;;;;5075927;28;20051;-66
2023/10/07 07:24:37;;;;;;;13.77;3.90;;;17.50;99.90;;;;;;5076557;28;20153;-67
2023/10/07 07:27:03;;;;;;;13.70;4.00;;;17.60;99.90;;;;;;5076867;28;20056;-67
2023/10/07 07:29:30;;;;;;;13.70;3.97;;;17.60;99.90;;;;;;5075423;28;20041;-67
2023/10/07 07:31:55;;;;;;;10.67;4.10;;;17.70;99.90;;;;;;5075558;28;20048;-67
2023/10/07 07:34:36;;;;;;;11.50;4.23;;;17.70;99.90;;;;;;5075745;28;20037;-67
2023/10/07 07:37:04;;;;;;;13.73;4.30;;;17.80;99.90;;;;;;5075779;28;20404;-67
2023/10/07 07:39:30;;;;;;;13.33;4.30;;;17.80;99.90;;;;;;5075352;28;20556;-67
2023/10/07 07:42:15;;;;;;;15.53;4.00;;;17.90;99.90;;;;;;5075656;28;20044;-66
2023/10/07 07:44:55;;;;;;;16.05;4.50;;;17.90;99.90;;;;;;5075952;28;20350;-67
2023/10/07 07:47:21;;;;;;;14.63;4.60;;;17.90;99.90;;;;;;5075620;28;20124;-66
2023/10/07 07:49:48;;;;;;;16.00;4.50;;;17.90;99.90;;;;;;5075563;28;20410;-66
2023/10/07 07:52:15;;;;;;;16.50;4.30;;;17.90;99.90;;;;;;5075561;28;20040;-66
2023/10/07 07:54:44;;;;;;;18.10;4.33;;;17.90;99.90;;;;;;5075488;28;20121;-67
2023/10/07 07:57:12;;;;;;;16.07;4.70;;;17.90;99.90;;;;;;5075428;28;20044;-67
2023/10/07 07:59:38;;;;;;;18.97;5.00;;;17.90;99.90;;;;;;5075377;28;20056;-67
2023/10/07 08:02:15;;;;;;;18.30;4.93;;;17.90;99.90;;;;;;5076028;28;20366;-67
2023/10/07 08:04:48;;;;;;;12.70;4.40;;;17.90;99.90;;;;;;5075819;28;20048;-66
2023/10/07 08:09:51;;;;;;;13.23;4.47;;;17.90;99.90;;;;;;5075270;28;20182;-67
2023/10/07 08:12:28;;;;;;;16.43;4.27;;;18.00;99.90;;;;;;5075159;28;20045;-67
2023/10/07 08:14:58;;;;;;;19.70;4.70;;;18.00;99.90;;;;;;5075678;28;20045;-67
2023/10/07 08:17:27;;;;;;;11.80;4.20;;;18.00;99.90;;;;;;5074046;28;20389;-67
2023/10/07 08:19:53;;;;;;;13.03;4.27;;;18.00;99.90;;;;;;5074296;28;20354;-67
2023/10/07 08:22:20;;;;;;;19.03;4.60;;;17.90;99.90;;;;;;5074894;28;20121;-67
2023/10/07 08:24:47;;;;;;;12.33;4.43;;;18.00;99.90;;;;;;5074768;28;20045;-67
2023/10/07 08:30:05;;;;;;;18.13;4.30;;;18.00;99.90;;;;;;5075364;28;20500;-67
2023/10/07 08:32:43;;;;;;;16.00;4.67;;;18.00;99.90;;;;;;5074672;28;20044;-67
2023/10/07 08:35:14;;;;;;;20.50;5.40;;;18.00;99.90;;;;;;5074730;28;20048;-66
2023/10/07 08:37:47;;;;;;;17.37;4.80;;;18.00;99.90;;;;;;5073931;28;20438;-67
2023/10/07 08:40:26;;;;;;;17.53;4.80;;;18.00;99.90;;;;;;5074565;28;20131;-67
2023/10/07 08:43:00;;;;;;;28.97;6.20;;;18.10;99.90;;;;;;5074694;28;20067;-67
2023/10/07 08:45:39;;;;;;;32.15;6.85;;;18.20;99.90;;;;;;5074542;28;20481;-67
2023/10/07 08:48:15;;;;;;;50.60;9.27;;;18.20;99.90;;;;;;5075040;28;20107;-67
2023/10/07 08:50:58;;;;;;;20.13;5.30;;;18.20;99.90;;;;;;5073659;28;20141;-67
2023/10/07 08:53:25;;;;;;;16.77;4.37;;;18.20;99.90;;;;;;5074298;28;20059;-67
2023/10/07 08:55:57;;;;;;;18.87;5.13;;;18.20;99.90;;;;;;5073915;28;20504;-67
2023/10/07 08:58:27;;;;;;;45.00;7.73;;;18.20;99.90;;;;;;5073902;28;20488;-67
2023/10/07 09:00:56;;;;;;;35.10;6.93;;;18.30;99.90;;;;;;5073942;28;20049;-67
2023/10/07 09:03:26;;;;;;;14.10;5.00;;;18.30;99.90;;;;;;5074083;28;20041;-67
2023/10/07 09:05:53;;;;;;;22.33;6.07;;;18.30;99.90;;;;;;5073115;28;20087;-66
2023/10/07 09:08:22;;;;;;;28.37;7.10;;;18.40;99.90;;;;;;5073991;28;20049;-66
2023/10/07 09:10:50;;;;;;;17.03;5.57;;;18.40;99.90;;;;;;5073957;28;20105;-67
2023/10/07 09:13:31;;;;;;;22.20;5.20;;;18.40;99.90;;;;;;5074455;28;20358;-67
2023/10/07 09:15:59;;;;;;;14.93;5.17;;;18.50;99.90;;;;;;5073833;28;20044;-67
2023/10/07 09:18:31;;;;;;;14.60;5.17;;;18.50;99.90;;;;;;5073828;28;20086;-67
2023/10/07 09:20:57;;;;;;;13.50;5.40;;;18.50;99.90;;;;;;5073849;28;20496;-67
2023/10/07 09:23:47;;;;;;;31.17;7.53;;;18.60;99.90;;;;;;5073789;28;20059;-67
2023/10/07 09:26:21;;;;;;;24.23;6.27;;;18.60;99.90;;;;;;5074538;28;20060;-67
2023/10/07 09:29:14;;;;;;;19.37;5.93;;;18.60;99.90;;;;;;5074347;28;20091;-67
2023/10/07 09:31:42;;;;;;;18.77;4.57;;;18.60;99.90;;;;;;5073747;28;20082;-68
2023/10/07 09:34:11;;;;;;;18.03;5.50;;;18.60;99.90;;;;;;5073329;28;20558;-67
2023/10/07 09:36:46;;;;;;;15.33;4.83;;;18.70;99.90;;;;;;5073521;28;20052;-67
2023/10/07 09:41:39;;;;;;;21.10;5.60;;;18.70;99.90;;;;;;5073414;28;20048;-67
2023/10/07 09:44:20;;;;;;;22.00;4.93;;;18.70;99.90;;;;;;5072432;28;20040;-68
2023/10/07 09:46:46;;;;;;;20.07;5.83;;;18.70;99.90;;;;;;5073943;28;20106;-67
2023/10/07 09:49:14;;;;;;;20.20;5.47;;;18.70;99.90;;;;;;5073743;28;20469;-65
2023/10/07 09:51:47;;;;;;;16.17;4.83;;;18.70;99.90;;;;;;5073111;28;20527;-67
2023/10/07 09:54:36;;;;;;;15.60;5.00;;;18.80;99.90;;;;;;5073759;28;20048;-67
2023/10/07 09:57:19;;;;;;;16.83;5.67;;;18.80;99.90;;;;;;5073531;28;20048;-67
2023/10/07 10:03:22;;;;;;;15.63;4.95;;;18.90;99.90;;;;;;5073831;28;20052;-67
2023/10/07 10:06:07;;;;;;;19.13;5.20;;;19.00;99.90;;;;;;5073684;28;20500;-68
2023/10/07 10:08:57;;;;;;;13.40;4.82;;;19.00;99.90;;;;;;5073503;28;20538;-66
2023/10/07 10:16:51;;;;;;;23.30;6.20;;;19.00;99.90;;;;;;5073349;28;20412;-66
2023/10/07 10:19:49;;;;;;;12.40;5.17;;;19.00;99.90;;;;;;5073227;28;20052;-67
2023/10/07 10:22:24;;;;;;;19.03;5.27;;;19.00;99.90;;;;;;5073638;28;20040;-67
2023/10/07 10:24:54;;;;;;;;;;;19.00;99.90;;;;;;5073505;28;20400;-67
2023/10/07 10:27:20;;;;;;;16.37;5.13;;;19.00;99.90;;;;;;5072952;28;19971;-67
2023/10/07 10:30:24;;;;;;;18.73;5.27;;;19.00;99.90;;;;;;5073115;28;20045;-67
2023/10/07 10:32:57;;;;;;;17.27;5.27;;;19.00;99.90;;;;;;5072483;28;20135;-68
2023/10/07 10:35:24;;;;;;;13.27;5.37;;;19.10;99.90;;;;;;5073148;28;20119;-67
2023/10/07 10:37:55;;;;;;;14.43;5.13;;;19.10;99.90;;;;;;5071540;28;20507;-67
2023/10/07 10:40:21;;;;;;;17.70;5.40;;;19.20;99.90;;;;;;5073255;28;20469;-67
2023/10/07 10:42:49;;;;;;;13.67;4.57;;;19.20;99.90;;;;;;5073732;28;20041;-67
2023/10/07 10:45:20;;;;;;;17.47;6.03;;;19.30;99.90;;;;;;5072972;28;20489;-67
2023/10/07 10:47:53;;;;;;;16.27;5.37;;;19.30;99.90;;;;;;5072935;28;20057;-67
2023/10/07 10:50:22;;;;;;;19.63;5.67;;;19.30;99.90;;;;;;5073506;28;20055;-67
2023/10/07 10:52:48;;;;;;;15.17;4.60;;;19.30;99.90;;;;;;5072844;28;20040;-67
2023/10/07 10:55:18;;;;;;;14.23;5.40;;;19.40;99.90;;;;;;5073428;28;20055;-67
2023/10/07 10:57:44;;;;;;;14.60;4.90;;;19.40;99.90;;;;;;5072769;28;20131;-67
2023/10/07 11:00:21;;;;;;;17.70;5.27;;;19.50;99.90;;;;;;5072802;28;20047;-71
2023/10/07 11:02:49;;;;;;;19.37;5.50;;;19.50;99.90;;;;;;5072762;28;20040;-67
2023/10/07 11:05:15;;;;;;;15.20;5.23;;;19.50;99.90;;;;;;5073678;28;20131;-67
2023/10/07 11:07:42;;;;;;;18.33;5.97;;;19.60;99.90;;;;;;5075312;28;20090;-68
2023/10/07 11:10:10;;;;;;;13.07;5.40;;;19.60;99.90;;;;;;5076243;28;20088;-67
2023/10/07 11:12:37;;;;;;;20.10;6.47;;;19.60;99.90;;;;;;5076130;28;20040;-67
2023/10/07 11:15:13;;;;;;;14.40;5.00;;;19.60;99.90;;;;;;5076188;28;20044;-67
2023/10/07 11:17:52;;;;;;;14.40;5.07;;;19.60;99.90;;;;;;5076794;28;20389;-67
2023/10/07 11:20:19;;;;;;;18.30;5.07;;;19.60;99.90;;;;;;5074946;28;20052;-67
2023/10/07 11:22:45;;;;;;;15.23;5.20;;;19.70;99.90;;;;;;5076050;28;20052;-67
2023/10/07 11:25:18;;;;;;;16.17;5.07;;;19.70;99.90;;;;;;5075932;28;20070;-67
2023/10/07 11:27:46;;;;;;;16.07;5.63;;;19.70;99.90;;;;;;5076047;28;20059;-67
2023/10/07 11:30:14;;;;;;;18.10;5.40;;;19.70;99.90;;;;;;5076478;28;20048;-67
2023/10/07 11:32:41;;;;;;;18.47;5.33;;;19.80;99.90;;;;;;5076420;28;20431;-67
2023/10/07 11:35:19;;;;;;;15.47;5.43;;;19.80;99.90;;;;;;5075392;28;20106;-67
2023/10/07 11:37:57;;;;;;;15.70;5.20;;;19.80;99.90;;;;;;5076361;28;20051;-67
2023/10/07 11:40:24;;;;;;;17.67;4.70;;;19.80;99.90;;;;;;5075823;28;20044;-67
2023/10/07 11:42:51;;;;;;;17.47;5.40;;;19.80;99.90;;;;;;5075943;28;20366;-67
2023/10/07 11:45:17;;;;;;;15.07;5.33;;;19.70;99.90;;;;;;5075577;28;20041;-67
2023/10/07 11:47:44;;;;;;;16.77;5.40;;;19.80;99.90;;;;;;5075718;28;20047;-67
2023/10/07 11:50:10;;;;;;;22.57;5.90;;;19.80;99.90;;;;;;5075528;28;20052;-67
2023/10/07 11:52:37;;;;;;;17.33;5.30;;;19.90;99.90;;;;;;5075851;28;20044;-67
2023/10/07 11:55:07;;;;;;;17.50;4.90;;;19.90;99.90;;;;;;5075570;28;20098;-67
2023/10/07 11:57:34;;;;;;;16.57;4.77;;;19.90;99.90;;;;;;5076321;28;20056;-67
2023/10/07 12:00:00;;;;;;;15.87;6.00;;;19.80;99.90;;;;;;5075409;28;20392;-67
2023/10/07 12:02:25;;;;;;;12.83;4.80;;;19.80;99.90;;;;;;5075801;28;20036;-67
2023/10/07 12:04:52;;;;;;;16.80;4.67;;;19.70;99.90;;;;;;5075810;28;20202;-67
2023/10/07 12:07:18;;;;;;;19.20;5.27;;;19.70;99.90;;;;;;5075029;28;20488;-66
2023/10/07 12:09:47;;;;;;;15.67;5.00;;;19.70;99.90;;;;;;5075229;28;20127;-67
2023/10/07 12:12:14;;;;;;;16.60;5.07;;;19.70;99.90;;;;;;5075436;28;20151;-67
2023/10/07 12:14:40;;;;;;;16.57;5.17;;;19.70;99.90;;;;;;5075389;28;20101;-67
2023/10/07 12:17:07;;;;;;;20.13;5.53;;;19.70;99.90;;;;;;5058026;28;20404;-67
2023/10/07 12:19:35;;;;;;;14.60;4.90;;;19.70;99.90;;;;;;5075809;28;20407;-67
2023/10/07 12:22:03;;;;;;;11.97;4.93;;;19.60;99.90;;;;;;5074868;28;20091;-67
2023/10/07 12:24:29;;;;;;;15.07;4.97;;;19.60;99.90;;;;;;5075060;28;20048;-67
2023/10/07 12:26:56;;;;;;;15.73;4.60;;;19.50;99.90;;;;;;5074601;28;20109;-67
2023/10/07 12:29:23;;;;;;;13.20;5.23;;;19.40;99.90;;;;;;5074785;28;20091;-67
2023/10/07 12:31:49;;;;;;;17.37;6.00;;;19.40;99.90;;;;;;5074551;28;20044;-67
2023/10/07 12:34:16;;;;;;;18.37;5.20;;;19.40;99.90;;;;;;5074500;28;20041;-67
2023/10/07 12:36:46;;;;;;;15.90;5.00;;;19.40;99.90;;;;;;5073321;28;20397;-67
2023/10/07 12:39:11;;;;;;;13.03;5.60;;;19.40;99.90;;;;;;5074486;28;20085;-67
2023/10/07 12:41:38;;;;;;;18.03;5.77;;;19.40;99.90;;;;;;5074452;28;20096;-67
2023/10/07 12:44:08;;;;;;;14.03;4.73;;;19.50;99.90;;;;;;5074454;28;20052;-67
2023/10/07 12:46:36;;;;;;;17.17;5.20;;;19.50;99.90;;;;;;5074625;28;20094;-67
2023/10/07 12:49:03;;;;;;;19.27;6.10;;;19.50;99.90;;;;;;5074318;28;20044;-67
2023/10/07 12:51:31;;;;;;;15.17;5.07;;;19.50;99.90;;;;;;5074260;28;20442;-67
2023/10/07 12:53:59;;;;;;;15.27;5.07;;;19.50;99.90;;;;;;5073650;28;20071;-67
2023/10/07 12:56:25;;;;;;;14.37;5.00;;;19.50;99.90;;;;;;5074847;28;20413;-67
2023/10/07 12:58:53;;;;;;;18.70;5.20;;;19.40;99.90;;;;;;5074778;28;20170;-67
2023/10/07 13:01:19;;;;;;;14.13;5.27;;;19.40;99.90;;;;;;5056795;28;20094;-67
2023/10/07 13:03:45;;;;;;;15.73;5.27;;;19.40;99.90;;;;;;5073264;28;20075;-67
2023/10/07 13:06:14;;;;;;;15.37;5.33;;;19.40;99.90;;;;;;5074581;28;20048;-67
2023/10/07 13:08:40;;;;;;;15.57;5.40;;;19.30;99.90;;;;;;5074047;28;20051;-67
2023/10/07 13:11:11;;;;;;;15.60;5.10;;;19.30;99.90;;;;;;5074037;28;20045;-67
2023/10/07 13:13:41;;;;;;;19.00;5.20;;;19.20;99.90;;;;;;5073970;28;20049;-67
2023/10/07 13:16:10;;;;;;;18.00;4.97;;;19.20;99.90;;;;;;5073594;28;20056;-67
2023/10/07 13:18:38;;;;;;;21.10;5.87;;;19.20;99.90;;;;;;5073857;28;20044;-67
2023/10/07 13:21:07;;;;;;;17.00;5.87;;;19.10;99.90;;;;;;5074297;28;20041;-67
2023/10/07 13:23:38;;;;;;;16.43;5.40;;;19.10;99.90;;;;;;5074329;28;20051;-67
2023/10/07 13:26:11;;;;;;;17.20;5.70;;;19.00;99.90;;;;;;5073852;28;20135;-67
2023/10/07 13:28:40;;;;;;;15.43;5.10;;;19.00;99.90;;;;;;5073086;28;20052;-67
2023/10/07 13:31:08;;;;;;;16.23;5.20;;;19.00;99.90;;;;;;5074007;28;20052;-67
2023/10/07 13:33:37;;;;;;;17.13;5.60;;;18.90;99.90;;;;;;5074017;28;20164;-67
2023/10/07 13:36:07;;;;;;;18.13;5.47;;;18.90;99.90;;;;;;5073914;28;20049;-67
2023/10/07 13:38:36;;;;;;;16.93;6.53;;;18.90;99.90;;;;;;5073680;28;20084;-67
2023/10/07 13:41:03;;;;;;;17.63;4.97;;;18.90;99.90;;;;;;5073518;28;20127;-67
2023/10/07 13:43:29;;;;;;;16.67;5.13;;;18.90;99.90;;;;;;5073647;28;20045;-67